sensor_id;sensor_type;location;lat;lon;timestamp;P1;durP1;ratioP1;P2;durP2;ratioP2
16073;SDS011;8141;52.664;5.074;2023-07-29T00:00:52;8.10;;;1.10;;
16073;SDS011;8141;52.664;5.074;2023-07-29T00:03:18;4.70;;;1.37;;
16073;SDS011;8141;52.664;5.074;2023-07-29T00:05:43;7.03;;;1.30;;
16073;SDS011;8141;52.664;5.074;2023-07-29T00:08:10;4.90;;;1.10;;
16073;SDS011;8141;52.664;5.074;2023-07-29T00:10:36;7.17;;;1.67;;
16073;SDS011;8141;52.664;5.074;2023-07-29T00:13:02;7.03;;;1.30;;
16073;SDS011;8141;52.664;5.074;2023-07-29T00:15:30;2.93;;;1.10;;
16073;SDS011;8141;52.664;5.074;2023-07-29T00:17:55;5.77;;;1.60;;
16073;SDS011;8141;52.664;5.074;2023-07-29T00:20:21;4.30;;;1.77;;
16073;SDS011;8141;52.664;5.074;2023-07-29T00:22:47;3.87;;;1.10;;
16073;SDS011;8141;52.664;5.074;2023-07-29T00:25:15;4.77;;;1.63;;
16073;SDS011;8141;52.664;5.074;2023-07-29T00:27:41;5.33;;;1.50;;
16073;SDS011;8141;52.664;5.074;2023-07-29T00:30:07;4.70;;;1.70;;
16073;SDS011;8141;52.664;5.074;2023-07-29T00:32:34;3.73;;;1.40;;
16073;SDS011;8141;52.664;5.074;2023-07-29T00:35:01;4.07;;;1.03;;
16073;SDS011;8141;52.664;5.074;2023-07-29T00:37:28;4.27;;;1.27;;
16073;SDS011;8141;52.664;5.074;2023-07-29T00:39:55;3.37;;;1.33;;
16073;SDS011;8141;52.664;5.074;2023-07-29T00:42:21;3.67;;;1.00;;
16073;SDS011;8141;52.664;5.074;2023-07-29T00:44:47;3.13;;;1.13;;
16073;SDS011;8141;52.664;5.074;2023-07-29T00:47:13;2.60;;;1.20;;
16073;SDS011;8141;52.664;5.074;2023-07-29T00:49:41;2.30;;;1.10;;
16073;SDS011;8141;52.664;5.074;2023-07-29T00:52:08;2.00;;;0.90;;
16073;SDS011;8141;52.664;5.074;2023-07-29T00:54:37;3.37;;;1.20;;
16073;SDS011;8141;52.664;5.074;2023-07-29T00:57:04;2.37;;;1.10;;
16073;SDS011;8141;52.664;5.074;2023-07-29T00:59:32;4.07;;;1.10;;
16073;SDS011;8141;52.664;5.074;2023-07-29T01:02:00;2.53;;;1.10;;
16073;SDS011;8141;52.664;5.074;2023-07-29T01:04:25;2.07;;;1.00;;
16073;SDS011;8141;52.664;5.074;2023-07-29T01:12:35;2.83;;;1.70;;
16073;SDS011;8141;52.664;5.074;2023-07-29T01:15:29;1.27;;;0.93;;
16073;SDS011;8141;52.664;5.074;2023-07-29T01:18:28;2.07;;;1.00;;
16073;SDS011;8141;52.664;5.074;2023-07-29T01:21:02;1.53;;;1.07;;
16073;SDS011;8141;52.664;5.074;2023-07-29T01:23:30;1.23;;;0.70;;
16073;SDS011;8141;52.664;5.074;2023-07-29T01:26:00;2.33;;;0.90;;
16073;SDS011;8141;52.664;5.074;2023-07-29T01:28:27;2.23;;;0.97;;
16073;SDS011;8141;52.664;5.074;2023-07-29T01:30:58;2.70;;;0.70;;
16073;SDS011;8141;52.664;5.074;2023-07-29T01:33:39;2.10;;;0.80;;
16073;SDS011;8141;52.664;5.074;2023-07-29T01:36:13;2.15;;;0.98;;
16073;SDS011;8141;52.664;5.074;2023-07-29T01:41:13;0.90;;;0.70;;
16073;SDS011;8141;52.664;5.074;2023-07-29T01:43:40;0.87;;;0.70;;
16073;SDS011;8141;52.664;5.074;2023-07-29T01:46:12;1.53;;;0.97;;
16073;SDS011;8141;52.664;5.074;2023-07-29T01:48:39;2.13;;;0.90;;
16073;SDS011;8141;52.664;5.074;2023-07-29T01:51:05;1.60;;;0.80;;
16073;SDS011;8141;52.664;5.074;2023-07-29T01:53:32;0.70;;;0.60;;
16073;SDS011;8141;52.664;5.074;2023-07-29T01:55:58;1.97;;;0.90;;
16073;SDS011;8141;52.664;5.074;2023-07-29T01:58:24;1.80;;;0.90;;
16073;SDS011;8141;52.664;5.074;2023-07-29T02:00:50;0.87;;;0.80;;
16073;SDS011;8141;52.664;5.074;2023-07-29T02:03:16;2.20;;;0.93;;
16073;SDS011;8141;52.664;5.074;2023-07-29T02:05:42;1.67;;;0.80;;
16073;SDS011;8141;52.664;5.074;2023-07-29T02:08:09;0.70;;;0.70;;
16073;SDS011;8141;52.664;5.074;2023-07-29T02:10:35;0.90;;;0.80;;
16073;SDS011;8141;52.664;5.074;2023-07-29T02:13:01;2.37;;;1.00;;
16073;SDS011;8141;52.664;5.074;2023-07-29T02:15:28;1.07;;;0.80;;
16073;SDS011;8141;52.664;5.074;2023-07-29T02:17:54;2.60;;;0.80;;
16073;SDS011;8141;52.664;5.074;2023-07-29T02:20:19;1.17;;;0.70;;
16073;SDS011;8141;52.664;5.074;2023-07-29T02:22:45;1.00;;;0.70;;
16073;SDS011;8141;52.664;5.074;2023-07-29T02:25:11;1.33;;;0.70;;
16073;SDS011;8141;52.664;5.074;2023-07-29T02:27:37;1.10;;;0.90;;
16073;SDS011;8141;52.664;5.074;2023-07-29T02:30:05;1.13;;;0.77;;
16073;SDS011;8141;52.664;5.074;2023-07-29T02:32:34;1.17;;;0.87;;
16073;SDS011;8141;52.664;5.074;2023-07-29T02:35:00;1.63;;;0.77;;
16073;SDS011;8141;52.664;5.074;2023-07-29T02:37:26;1.43;;;0.80;;
16073;SDS011;8141;52.664;5.074;2023-07-29T02:39:51;1.80;;;0.60;;
16073;SDS011;8141;52.664;5.074;2023-07-29T02:42:17;1.00;;;0.80;;
16073;SDS011;8141;52.664;5.074;2023-07-29T02:44:43;1.00;;;0.80;;
16073;SDS011;8141;52.664;5.074;2023-07-29T02:47:09;0.80;;;0.80;;
16073;SDS011;8141;52.664;5.074;2023-07-29T02:49:34;0.70;;;0.70;;
16073;SDS011;8141;52.664;5.074;2023-07-29T02:52:00;1.57;;;0.80;;
16073;SDS011;8141;52.664;5.074;2023-07-29T02:54:26;1.07;;;0.83;;
16073;SDS011;8141;52.664;5.074;2023-07-29T02:56:51;1.33;;;0.70;;
16073;SDS011;8141;52.664;5.074;2023-07-29T02:59:18;1.20;;;0.80;;
16073;SDS011;8141;52.664;5.074;2023-07-29T03:01:44;2.30;;;0.53;;
16073;SDS011;8141;52.664;5.074;2023-07-29T03:04:10;1.20;;;0.80;;
16073;SDS011;8141;52.664;5.074;2023-07-29T03:06:38;0.80;;;0.60;;
16073;SDS011;8141;52.664;5.074;2023-07-29T03:09:03;1.20;;;0.60;;
16073;SDS011;8141;52.664;5.074;2023-07-29T03:11:30;0.90;;;0.67;;
16073;SDS011;8141;52.664;5.074;2023-07-29T03:13:56;0.83;;;0.73;;
16073;SDS011;8141;52.664;5.074;2023-07-29T03:16:22;1.50;;;0.70;;
16073;SDS011;8141;52.664;5.074;2023-07-29T03:18:48;0.83;;;0.60;;
16073;SDS011;8141;52.664;5.074;2023-07-29T03:21:14;0.77;;;0.63;;
16073;SDS011;8141;52.664;5.074;2023-07-29T03:23:40;0.60;;;0.53;;
16073;SDS011;8141;52.664;5.074;2023-07-29T03:26:06;2.40;;;0.80;;
16073;SDS011;8141;52.664;5.074;2023-07-29T03:28:36;1.47;;;0.70;;
16073;SDS011;8141;52.664;5.074;2023-07-29T03:31:04;1.00;;;0.60;;
16073;SDS011;8141;52.664;5.074;2023-07-29T03:33:30;0.80;;;0.50;;
16073;SDS011;8141;52.664;5.074;2023-07-29T03:35:56;0.60;;;0.60;;
16073;SDS011;8141;52.664;5.074;2023-07-29T03:38:21;1.20;;;0.73;;
16073;SDS011;8141;52.664;5.074;2023-07-29T03:40:47;0.80;;;0.80;;
16073;SDS011;8141;52.664;5.074;2023-07-29T03:43:13;0.73;;;0.70;;
16073;SDS011;8141;52.664;5.074;2023-07-29T03:45:39;1.23;;;0.60;;
16073;SDS011;8141;52.664;5.074;2023-07-29T03:48:05;0.70;;;0.50;;
16073;SDS011;8141;52.664;5.074;2023-07-29T03:50:33;0.57;;;0.50;;
16073;SDS011;8141;52.664;5.074;2023-07-29T03:53:00;0.53;;;0.53;;
16073;SDS011;8141;52.664;5.074;2023-07-29T03:55:27;0.60;;;0.60;;
16073;SDS011;8141;52.664;5.074;2023-07-29T03:57:55;0.40;;;0.40;;
16073;SDS011;8141;52.664;5.074;2023-07-29T04:00:22;0.60;;;0.53;;
16073;SDS011;8141;52.664;5.074;2023-07-29T04:02:48;1.00;;;0.70;;
16073;SDS011;8141;52.664;5.074;2023-07-29T04:05:14;0.70;;;0.50;;
16073;SDS011;8141;52.664;5.074;2023-07-29T04:07:40;0.70;;;0.50;;
16073;SDS011;8141;52.664;5.074;2023-07-29T04:10:06;1.17;;;0.50;;
16073;SDS011;8141;52.664;5.074;2023-07-29T04:12:32;0.60;;;0.60;;
16073;SDS011;8141;52.664;5.074;2023-07-29T04:14:58;0.63;;;0.50;;
16073;SDS011;8141;52.664;5.074;2023-07-29T04:17:24;0.50;;;0.47;;
16073;SDS011;8141;52.664;5.074;2023-07-29T04:19:50;0.70;;;0.63;;
16073;SDS011;8141;52.664;5.074;2023-07-29T04:22:15;0.43;;;0.40;;
16073;SDS011;8141;52.664;5.074;2023-07-29T04:24:41;0.83;;;0.73;;
16073;SDS011;8141;52.664;5.074;2023-07-29T04:27:07;0.50;;;0.50;;
16073;SDS011;8141;52.664;5.074;2023-07-29T04:29:33;1.07;;;0.80;;
16073;SDS011;8141;52.664;5.074;2023-07-29T04:32:01;0.50;;;0.50;;
16073;SDS011;8141;52.664;5.074;2023-07-29T04:34:30;0.87;;;0.60;;
16073;SDS011;8141;52.664;5.074;2023-07-29T04:36:56;1.03;;;0.70;;
16073;SDS011;8141;52.664;5.074;2023-07-29T04:39:22;0.50;;;0.50;;
16073;SDS011;8141;52.664;5.074;2023-07-29T04:41:48;0.63;;;0.50;;
16073;SDS011;8141;52.664;5.074;2023-07-29T04:44:13;0.67;;;0.50;;
16073;SDS011;8141;52.664;5.074;2023-07-29T04:46:39;0.80;;;0.70;;
16073;SDS011;8141;52.664;5.074;2023-07-29T04:49:05;0.70;;;0.50;;
16073;SDS011;8141;52.664;5.074;2023-07-29T04:51:31;0.77;;;0.77;;
16073;SDS011;8141;52.664;5.074;2023-07-29T04:53:57;0.40;;;0.40;;
16073;SDS011;8141;52.664;5.074;2023-07-29T04:56:23;0.77;;;0.60;;
16073;SDS011;8141;52.664;5.074;2023-07-29T04:58:49;0.57;;;0.57;;
16073;SDS011;8141;52.664;5.074;2023-07-29T05:01:15;0.90;;;0.73;;
16073;SDS011;8141;52.664;5.074;2023-07-29T05:03:41;0.90;;;0.50;;
16073;SDS011;8141;52.664;5.074;2023-07-29T05:06:07;0.87;;;0.77;;
16073;SDS011;8141;52.664;5.074;2023-07-29T05:08:32;0.40;;;0.40;;
16073;SDS011;8141;52.664;5.074;2023-07-29T05:10:58;1.00;;;0.67;;
16073;SDS011;8141;52.664;5.074;2023-07-29T05:13:24;0.40;;;0.40;;
16073;SDS011;8141;52.664;5.074;2023-07-29T05:15:50;0.83;;;0.67;;
16073;SDS011;8141;52.664;5.074;2023-07-29T05:18:16;0.60;;;0.60;;
16073;SDS011;8141;52.664;5.074;2023-07-29T05:20:42;0.57;;;0.57;;
16073;SDS011;8141;52.664;5.074;2023-07-29T05:23:08;1.20;;;0.63;;
16073;SDS011;8141;52.664;5.074;2023-07-29T05:25:34;0.50;;;0.50;;
16073;SDS011;8141;52.664;5.074;2023-07-29T05:28:03;0.53;;;0.53;;
16073;SDS011;8141;52.664;5.074;2023-07-29T05:30:29;0.50;;;0.50;;
16073;SDS011;8141;52.664;5.074;2023-07-29T05:33:02;1.00;;;0.50;;
16073;SDS011;8141;52.664;5.074;2023-07-29T05:35:29;0.40;;;0.40;;
16073;SDS011;8141;52.664;5.074;2023-07-29T05:37:55;0.60;;;0.47;;
16073;SDS011;8141;52.664;5.074;2023-07-29T05:40:21;0.80;;;0.70;;
16073;SDS011;8141;52.664;5.074;2023-07-29T05:42:46;0.40;;;0.40;;
16073;SDS011;8141;52.664;5.074;2023-07-29T05:45:13;0.50;;;0.50;;
16073;SDS011;8141;52.664;5.074;2023-07-29T05:47:38;0.90;;;0.50;;
16073;SDS011;8141;52.664;5.074;2023-07-29T05:50:04;0.50;;;0.43;;
16073;SDS011;8141;52.664;5.074;2023-07-29T05:52:33;0.50;;;0.37;;
16073;SDS011;8141;52.664;5.074;2023-07-29T05:54:59;0.40;;;0.40;;
16073;SDS011;8141;52.664;5.074;2023-07-29T05:57:25;0.60;;;0.50;;
16073;SDS011;8141;52.664;5.074;2023-07-29T05:59:51;0.50;;;0.50;;
16073;SDS011;8141;52.664;5.074;2023-07-29T06:02:17;0.83;;;0.50;;
16073;SDS011;8141;52.664;5.074;2023-07-29T06:04:43;0.60;;;0.60;;
16073;SDS011;8141;52.664;5.074;2023-07-29T06:07:09;0.80;;;0.60;;
16073;SDS011;8141;52.664;5.074;2023-07-29T06:09:34;1.23;;;0.30;;
16073;SDS011;8141;52.664;5.074;2023-07-29T06:12:00;0.40;;;0.40;;
16073;SDS011;8141;52.664;5.074;2023-07-29T06:14:26;0.63;;;0.50;;
16073;SDS011;8141;52.664;5.074;2023-07-29T06:16:52;0.50;;;0.50;;
16073;SDS011;8141;52.664;5.074;2023-07-29T06:19:18;0.40;;;0.30;;
16073;SDS011;8141;52.664;5.074;2023-07-29T06:21:45;0.67;;;0.50;;
16073;SDS011;8141;52.664;5.074;2023-07-29T06:24:11;0.60;;;0.50;;
16073;SDS011;8141;52.664;5.074;2023-07-29T06:26:37;0.53;;;0.53;;
16073;SDS011;8141;52.664;5.074;2023-07-29T06:29:02;1.20;;;0.50;;
16073;SDS011;8141;52.664;5.074;2023-07-29T06:31:28;0.70;;;0.50;;
16073;SDS011;8141;52.664;5.074;2023-07-29T06:33:54;0.30;;;0.30;;
16073;SDS011;8141;52.664;5.074;2023-07-29T06:36:20;0.60;;;0.50;;
16073;SDS011;8141;52.664;5.074;2023-07-29T06:38:46;0.30;;;0.30;;
16073;SDS011;8141;52.664;5.074;2023-07-29T06:41:12;0.80;;;0.50;;
16073;SDS011;8141;52.664;5.074;2023-07-29T06:43:38;0.40;;;0.40;;
16073;SDS011;8141;52.664;5.074;2023-07-29T06:46:04;0.50;;;0.47;;
16073;SDS011;8141;52.664;5.074;2023-07-29T06:48:30;0.50;;;0.40;;
16073;SDS011;8141;52.664;5.074;2023-07-29T06:50:56;0.53;;;0.50;;
16073;SDS011;8141;52.664;5.074;2023-07-29T06:53:25;0.40;;;0.40;;
16073;SDS011;8141;52.664;5.074;2023-07-29T06:55:54;0.30;;;0.30;;
16073;SDS011;8141;52.664;5.074;2023-07-29T06:58:19;0.40;;;0.37;;
16073;SDS011;8141;52.664;5.074;2023-07-29T07:00:46;0.77;;;0.63;;
16073;SDS011;8141;52.664;5.074;2023-07-29T07:03:11;1.20;;;0.30;;
16073;SDS011;8141;52.664;5.074;2023-07-29T07:05:37;0.50;;;0.40;;
16073;SDS011;8141;52.664;5.074;2023-07-29T07:08:03;0.70;;;0.60;;
16073;SDS011;8141;52.664;5.074;2023-07-29T07:10:29;0.40;;;0.40;;
16073;SDS011;8141;52.664;5.074;2023-07-29T07:12:54;0.80;;;0.53;;
16073;SDS011;8141;52.664;5.074;2023-07-29T07:15:20;0.43;;;0.43;;
16073;SDS011;8141;52.664;5.074;2023-07-29T07:17:46;0.53;;;0.40;;
16073;SDS011;8141;52.664;5.074;2023-07-29T07:20:12;0.87;;;0.60;;
16073;SDS011;8141;52.664;5.074;2023-07-29T07:22:37;1.47;;;0.47;;
16073;SDS011;8141;52.664;5.074;2023-07-29T07:25:04;1.00;;;0.57;;
16073;SDS011;8141;52.664;5.074;2023-07-29T07:27:30;0.93;;;0.50;;
16073;SDS011;8141;52.664;5.074;2023-07-29T07:29:56;0.43;;;0.40;;
16073;SDS011;8141;52.664;5.074;2023-07-29T07:32:21;0.70;;;0.50;;
16073;SDS011;8141;52.664;5.074;2023-07-29T07:34:47;0.90;;;0.30;;
16073;SDS011;8141;52.664;5.074;2023-07-29T07:37:13;0.33;;;0.23;;
16073;SDS011;8141;52.664;5.074;2023-07-29T07:39:38;0.83;;;0.40;;
16073;SDS011;8141;52.664;5.074;2023-07-29T07:42:04;0.40;;;0.40;;
16073;SDS011;8141;52.664;5.074;2023-07-29T07:44:30;0.97;;;0.50;;
16073;SDS011;8141;52.664;5.074;2023-07-29T07:46:56;0.30;;;0.30;;
16073;SDS011;8141;52.664;5.074;2023-07-29T07:49:22;1.07;;;0.60;;
16073;SDS011;8141;52.664;5.074;2023-07-29T07:51:48;0.50;;;0.50;;
16073;SDS011;8141;52.664;5.074;2023-07-29T07:54:13;0.47;;;0.30;;
16073;SDS011;8141;52.664;5.074;2023-07-29T07:56:39;0.60;;;0.50;;
16073;SDS011;8141;52.664;5.074;2023-07-29T07:59:05;0.40;;;0.40;;
16073;SDS011;8141;52.664;5.074;2023-07-29T08:01:34;1.53;;;0.60;;
16073;SDS011;8141;52.664;5.074;2023-07-29T08:04:01;0.83;;;0.50;;
16073;SDS011;8141;52.664;5.074;2023-07-29T08:06:27;3.97;;;1.20;;
16073;SDS011;8141;52.664;5.074;2023-07-29T08:08:53;2.30;;;0.90;;
16073;SDS011;8141;52.664;5.074;2023-07-29T08:11:19;4.60;;;1.10;;
16073;SDS011;8141;52.664;5.074;2023-07-29T08:13:45;4.00;;;1.37;;
16073;SDS011;8141;52.664;5.074;2023-07-29T08:16:12;3.07;;;1.27;;
16073;SDS011;8141;52.664;5.074;2023-07-29T08:18:38;3.23;;;1.23;;
16073;SDS011;8141;52.664;5.074;2023-07-29T08:21:04;3.97;;;1.20;;
16073;SDS011;8141;52.664;5.074;2023-07-29T08:23:33;3.63;;;1.07;;
16073;SDS011;8141;52.664;5.074;2023-07-29T08:26:01;1.77;;;1.10;;
16073;SDS011;8141;52.664;5.074;2023-07-29T08:28:31;5.27;;;1.23;;
16073;SDS011;8141;52.664;5.074;2023-07-29T08:30:59;2.73;;;1.17;;
16073;SDS011;8141;52.664;5.074;2023-07-29T08:33:25;4.23;;;1.27;;
16073;SDS011;8141;52.664;5.074;2023-07-29T08:35:51;3.63;;;1.20;;
16073;SDS011;8141;52.664;5.074;2023-07-29T08:38:18;3.43;;;1.47;;
16073;SDS011;8141;52.664;5.074;2023-07-29T08:43:24;2.53;;;1.17;;
16073;SDS011;8141;52.664;5.074;2023-07-29T08:46:00;3.67;;;1.02;;
16073;SDS011;8141;52.664;5.074;2023-07-29T08:48:36;2.60;;;1.10;;
16073;SDS011;8141;52.664;5.074;2023-07-29T08:51:08;7.47;;;1.83;;
16073;SDS011;8141;52.664;5.074;2023-07-29T08:53:35;3.37;;;1.00;;
16073;SDS011;8141;52.664;5.074;2023-07-29T08:56:03;1.77;;;0.87;;
16073;SDS011;8141;52.664;5.074;2023-07-29T08:58:30;3.63;;;1.10;;
16073;SDS011;8141;52.664;5.074;2023-07-29T09:00:57;3.53;;;1.30;;
16073;SDS011;8141;52.664;5.074;2023-07-29T09:03:23;4.23;;;1.33;;
16073;SDS011;8141;52.664;5.074;2023-07-29T09:05:49;3.13;;;1.30;;
16073;SDS011;8141;52.664;5.074;2023-07-29T09:08:15;5.00;;;1.10;;
16073;SDS011;8141;52.664;5.074;2023-07-29T09:10:41;5.10;;;1.30;;
16073;SDS011;8141;52.664;5.074;2023-07-29T09:13:07;8.57;;;1.73;;
16073;SDS011;8141;52.664;5.074;2023-07-29T09:15:34;20.77;;;2.30;;
16073;SDS011;8141;52.664;5.074;2023-07-29T09:18:17;11.63;;;1.63;;
16073;SDS011;8141;52.664;5.074;2023-07-29T09:20:48;6.17;;;1.73;;
16073;SDS011;8141;52.664;5.074;2023-07-29T09:23:15;5.27;;;1.50;;
16073;SDS011;8141;52.664;5.074;2023-07-29T09:25:41;79.40;;;16.70;;
16073;SDS011;8141;52.664;5.074;2023-07-29T09:28:11;92.63;;;21.00;;
16073;SDS011;8141;52.664;5.074;2023-07-29T09:30:39;57.40;;;14.30;;
16073;SDS011;8141;52.664;5.074;2023-07-29T09:33:08;49.17;;;12.77;;
16073;SDS011;8141;52.664;5.074;2023-07-29T09:35:35;41.40;;;9.97;;
16073;SDS011;8141;52.664;5.074;2023-07-29T09:38:03;32.43;;;7.10;;
16073;SDS011;8141;52.664;5.074;2023-07-29T09:40:37;31.40;;;8.17;;
16073;SDS011;8141;52.664;5.074;2023-07-29T09:43:04;24.67;;;6.97;;
16073;SDS011;8141;52.664;5.074;2023-07-29T09:45:32;24.97;;;6.87;;
16073;SDS011;8141;52.664;5.074;2023-07-29T09:48:00;23.83;;;6.87;;
16073;SDS011;8141;52.664;5.074;2023-07-29T09:50:27;23.70;;;6.53;;
16073;SDS011;8141;52.664;5.074;2023-07-29T09:52:54;20.10;;;5.37;;
16073;SDS011;8141;52.664;5.074;2023-07-29T09:55:23;20.97;;;4.90;;
16073;SDS011;8141;52.664;5.074;2023-07-29T09:57:56;18.00;;;4.80;;
16073;SDS011;8141;52.664;5.074;2023-07-29T10:00:26;15.30;;;4.70;;
16073;SDS011;8141;52.664;5.074;2023-07-29T10:02:53;13.40;;;3.67;;
16073;SDS011;8141;52.664;5.074;2023-07-29T10:05:20;10.70;;;3.33;;
16073;SDS011;8141;52.664;5.074;2023-07-29T10:07:47;11.37;;;3.40;;
16073;SDS011;8141;52.664;5.074;2023-07-29T10:10:14;8.60;;;3.23;;
16073;SDS011;8141;52.664;5.074;2023-07-29T10:12:41;10.03;;;3.27;;
16073;SDS011;8141;52.664;5.074;2023-07-29T10:15:08;8.57;;;3.40;;
16073;SDS011;8141;52.664;5.074;2023-07-29T10:17:37;10.83;;;2.80;;
16073;SDS011;8141;52.664;5.074;2023-07-29T10:20:04;5.83;;;2.33;;
16073;SDS011;8141;52.664;5.074;2023-07-29T10:22:33;7.80;;;2.60;;
16073;SDS011;8141;52.664;5.074;2023-07-29T10:25:14;7.40;;;2.17;;
16073;SDS011;8141;52.664;5.074;2023-07-29T10:27:49;6.63;;;2.17;;
16073;SDS011;8141;52.664;5.074;2023-07-29T10:30:18;7.93;;;2.90;;
16073;SDS011;8141;52.664;5.074;2023-07-29T10:32:45;5.90;;;2.30;;
16073;SDS011;8141;52.664;5.074;2023-07-29T10:35:12;7.77;;;2.77;;
16073;SDS011;8141;52.664;5.074;2023-07-29T10:37:38;4.57;;;2.40;;
16073;SDS011;8141;52.664;5.074;2023-07-29T10:40:08;5.47;;;2.30;;
16073;SDS011;8141;52.664;5.074;2023-07-29T10:42:36;6.87;;;2.03;;
16073;SDS011;8141;52.664;5.074;2023-07-29T10:45:19;6.57;;;2.03;;
16073;SDS011;8141;52.664;5.074;2023-07-29T10:47:46;4.07;;;2.37;;
16073;SDS011;8141;52.664;5.074;2023-07-29T10:50:16;3.43;;;1.73;;
16073;SDS011;8141;52.664;5.074;2023-07-29T10:52:46;3.40;;;1.80;;
16073;SDS011;8141;52.664;5.074;2023-07-29T10:58:14;3.13;;;1.70;;
16073;SDS011;8141;52.664;5.074;2023-07-29T11:00:44;4.83;;;2.13;;
16073;SDS011;8141;52.664;5.074;2023-07-29T11:03:11;3.90;;;1.80;;
16073;SDS011;8141;52.664;5.074;2023-07-29T11:05:45;3.17;;;1.70;;
16073;SDS011;8141;52.664;5.074;2023-07-29T11:08:29;4.47;;;2.43;;
16073;SDS011;8141;52.664;5.074;2023-07-29T11:11:03;3.23;;;1.67;;
16073;SDS011;8141;52.664;5.074;2023-07-29T11:13:32;5.32;;;2.00;;
16073;SDS011;8141;52.664;5.074;2023-07-29T11:16:00;2.90;;;1.70;;
16073;SDS011;8141;52.664;5.074;2023-07-29T11:18:28;4.40;;;1.70;;
16073;SDS011;8141;52.664;5.074;2023-07-29T11:20:59;4.67;;;2.00;;
16073;SDS011;8141;52.664;5.074;2023-07-29T11:23:32;3.97;;;1.73;;
16073;SDS011;8141;52.664;5.074;2023-07-29T11:26:00;1.77;;;1.40;;
16073;SDS011;8141;52.664;5.074;2023-07-29T11:28:28;4.73;;;1.57;;
16073;SDS011;8141;52.664;5.074;2023-07-29T11:30:55;3.80;;;1.80;;
16073;SDS011;8141;52.664;5.074;2023-07-29T11:33:22;4.47;;;1.83;;
16073;SDS011;8141;52.664;5.074;2023-07-29T11:35:50;1.93;;;1.30;;
16073;SDS011;8141;52.664;5.074;2023-07-29T11:38:17;2.93;;;1.80;;
16073;SDS011;8141;52.664;5.074;2023-07-29T11:40:53;4.07;;;1.80;;
16073;SDS011;8141;52.664;5.074;2023-07-29T11:43:24;4.17;;;1.50;;
16073;SDS011;8141;52.664;5.074;2023-07-29T11:45:50;13.40;;;2.13;;
16073;SDS011;8141;52.664;5.074;2023-07-29T11:48:17;7.03;;;2.03;;
16073;SDS011;8141;52.664;5.074;2023-07-29T11:50:43;4.50;;;1.77;;
16073;SDS011;8141;52.664;5.074;2023-07-29T11:53:10;4.67;;;1.60;;
16073;SDS011;8141;52.664;5.074;2023-07-29T11:55:37;4.83;;;1.93;;
16073;SDS011;8141;52.664;5.074;2023-07-29T11:58:03;4.43;;;1.60;;
16073;SDS011;8141;52.664;5.074;2023-07-29T12:00:29;4.70;;;1.47;;
16073;SDS011;8141;52.664;5.074;2023-07-29T12:02:56;4.70;;;1.87;;
16073;SDS011;8141;52.664;5.074;2023-07-29T12:05:22;5.40;;;2.13;;
16073;SDS011;8141;52.664;5.074;2023-07-29T12:07:48;2.43;;;1.20;;
16073;SDS011;8141;52.664;5.074;2023-07-29T12:10:14;3.83;;;1.40;;
16073;SDS011;8141;52.664;5.074;2023-07-29T12:12:44;5.03;;;1.50;;
16073;SDS011;8141;52.664;5.074;2023-07-29T12:15:22;4.00;;;1.83;;
16073;SDS011;8141;52.664;5.074;2023-07-29T12:17:53;3.47;;;1.50;;
16073;SDS011;8141;52.664;5.074;2023-07-29T12:20:21;4.43;;;2.03;;
16073;SDS011;8141;52.664;5.074;2023-07-29T12:22:57;4.50;;;1.70;;
16073;SDS011;8141;52.664;5.074;2023-07-29T12:25:27;1.67;;;1.20;;
16073;SDS011;8141;52.664;5.074;2023-07-29T12:27:54;3.03;;;1.30;;
16073;SDS011;8141;52.664;5.074;2023-07-29T12:30:20;3.23;;;1.60;;
16073;SDS011;8141;52.664;5.074;2023-07-29T12:32:47;4.07;;;1.50;;
16073;SDS011;8141;52.664;5.074;2023-07-29T12:35:13;4.30;;;1.53;;
16073;SDS011;8141;52.664;5.074;2023-07-29T12:37:39;3.63;;;1.30;;
16073;SDS011;8141;52.664;5.074;2023-07-29T12:40:08;3.23;;;1.57;;
16073;SDS011;8141;52.664;5.074;2023-07-29T12:42:47;1.77;;;1.23;;
16073;SDS011;8141;52.664;5.074;2023-07-29T12:45:14;2.67;;;1.20;;
16073;SDS011;8141;52.664;5.074;2023-07-29T12:47:41;2.30;;;1.17;;
16073;SDS011;8141;52.664;5.074;2023-07-29T12:50:07;4.90;;;1.40;;
16073;SDS011;8141;52.664;5.074;2023-07-29T12:52:33;2.73;;;1.20;;
16073;SDS011;8141;52.664;5.074;2023-07-29T12:54:58;4.60;;;1.50;;
16073;SDS011;8141;52.664;5.074;2023-07-29T12:57:24;4.07;;;1.10;;
16073;SDS011;8141;52.664;5.074;2023-07-29T12:59:50;2.27;;;1.20;;
16073;SDS011;8141;52.664;5.074;2023-07-29T13:02:15;2.10;;;1.00;;
16073;SDS011;8141;52.664;5.074;2023-07-29T13:04:41;1.43;;;1.07;;
16073;SDS011;8141;52.664;5.074;2023-07-29T13:07:07;2.47;;;1.20;;
16073;SDS011;8141;52.664;5.074;2023-07-29T13:09:33;2.90;;;1.17;;
16073;SDS011;8141;52.664;5.074;2023-07-29T13:11:58;1.87;;;1.20;;
16073;SDS011;8141;52.664;5.074;2023-07-29T13:14:24;2.13;;;0.90;;
16073;SDS011;8141;52.664;5.074;2023-07-29T13:16:51;3.43;;;1.10;;
16073;SDS011;8141;52.664;5.074;2023-07-29T13:19:18;1.47;;;0.90;;
16073;SDS011;8141;52.664;5.074;2023-07-29T13:21:44;1.93;;;0.90;;
16073;SDS011;8141;52.664;5.074;2023-07-29T13:24:09;3.23;;;0.97;;
16073;SDS011;8141;52.664;5.074;2023-07-29T13:26:35;1.97;;;0.97;;
16073;SDS011;8141;52.664;5.074;2023-07-29T13:29:01;5.77;;;1.37;;
16073;SDS011;8141;52.664;5.074;2023-07-29T13:31:26;1.57;;;0.60;;
16073;SDS011;8141;52.664;5.074;2023-07-29T13:33:52;3.33;;;0.80;;
16073;SDS011;8141;52.664;5.074;2023-07-29T13:36:18;5.47;;;1.10;;
16073;SDS011;8141;52.664;5.074;2023-07-29T13:38:43;7.20;;;1.80;;
16073;SDS011;8141;52.664;5.074;2023-07-29T13:41:09;8.57;;;1.70;;
16073;SDS011;8141;52.664;5.074;2023-07-29T13:43:35;29.80;;;4.23;;
16073;SDS011;8141;52.664;5.074;2023-07-29T13:46:00;8.77;;;1.93;;
16073;SDS011;8141;52.664;5.074;2023-07-29T13:48:26;4.97;;;1.77;;
16073;SDS011;8141;52.664;5.074;2023-07-29T13:50:52;8.50;;;1.90;;
16073;SDS011;8141;52.664;5.074;2023-07-29T13:53:18;8.57;;;1.43;;
16073;SDS011;8141;52.664;5.074;2023-07-29T13:55:43;5.33;;;1.87;;
16073;SDS011;8141;52.664;5.074;2023-07-29T13:58:09;7.00;;;1.73;;
16073;SDS011;8141;52.664;5.074;2023-07-29T14:00:35;4.90;;;1.30;;
16073;SDS011;8141;52.664;5.074;2023-07-29T14:03:01;3.37;;;1.10;;
16073;SDS011;8141;52.664;5.074;2023-07-29T14:05:26;3.40;;;1.17;;
16073;SDS011;8141;52.664;5.074;2023-07-29T14:07:52;3.60;;;1.10;;
16073;SDS011;8141;52.664;5.074;2023-07-29T14:10:18;2.30;;;1.10;;
16073;SDS011;8141;52.664;5.074;2023-07-29T14:12:44;4.10;;;1.13;;
16073;SDS011;8141;52.664;5.074;2023-07-29T14:15:09;4.53;;;1.20;;
16073;SDS011;8141;52.664;5.074;2023-07-29T14:17:35;2.50;;;0.87;;
16073;SDS011;8141;52.664;5.074;2023-07-29T14:20:01;3.37;;;1.00;;
16073;SDS011;8141;52.664;5.074;2023-07-29T14:22:28;1.33;;;0.80;;
16073;SDS011;8141;52.664;5.074;2023-07-29T14:24:53;1.57;;;0.80;;
16073;SDS011;8141;52.664;5.074;2023-07-29T14:27:19;1.20;;;0.97;;
16073;SDS011;8141;52.664;5.074;2023-07-29T14:29:46;1.23;;;0.80;;
16073;SDS011;8141;52.664;5.074;2023-07-29T14:32:12;1.10;;;0.70;;
16073;SDS011;8141;52.664;5.074;2023-07-29T14:34:38;3.80;;;0.93;;
16073;SDS011;8141;52.664;5.074;2023-07-29T14:37:03;2.83;;;0.70;;
16073;SDS011;8141;52.664;5.074;2023-07-29T14:39:30;1.43;;;0.80;;
16073;SDS011;8141;52.664;5.074;2023-07-29T14:41:56;1.97;;;0.80;;
16073;SDS011;8141;52.664;5.074;2023-07-29T14:44:21;1.37;;;0.70;;
16073;SDS011;8141;52.664;5.074;2023-07-29T14:46:47;1.27;;;0.70;;
16073;SDS011;8141;52.664;5.074;2023-07-29T14:49:13;1.57;;;0.90;;
16073;SDS011;8141;52.664;5.074;2023-07-29T14:51:38;1.80;;;1.07;;
16073;SDS011;8141;52.664;5.074;2023-07-29T14:54:04;1.40;;;0.50;;
16073;SDS011;8141;52.664;5.074;2023-07-29T14:56:30;1.50;;;0.77;;
16073;SDS011;8141;52.664;5.074;2023-07-29T14:58:56;1.93;;;0.80;;
16073;SDS011;8141;52.664;5.074;2023-07-29T15:01:21;2.13;;;1.13;;
16073;SDS011;8141;52.664;5.074;2023-07-29T15:03:47;1.53;;;0.90;;
16073;SDS011;8141;52.664;5.074;2023-07-29T15:06:13;3.03;;;0.90;;
16073;SDS011;8141;52.664;5.074;2023-07-29T15:08:38;1.50;;;0.70;;
16073;SDS011;8141;52.664;5.074;2023-07-29T15:11:04;1.37;;;0.73;;
16073;SDS011;8141;52.664;5.074;2023-07-29T15:13:30;2.50;;;1.00;;